Aeroporto :
LOGIN :

Iscrizione | Disclaimer

   EN    FR    IT 

 










Sommario :    VFR   VFR Marginale   IFR   IFR Intensivo   IFR Molto Intensivo
Visibilità : 
Base nubi : 
>= 8 km
>= 3000ft
5 / 8 km
1000 / 3000 ft
1500m / 5 km
500 / 1000 ft
800 / 1500m
200 / 500 ft
< 800m
< 200 ft
Simboli :   Temporali  Nebbia  Neve Forte  Precipitazioni Forti  Vento > 20 kt
SIGMETs :   Varie  Temporali  Ghiacco  Turbolenza  Onda orograficha  Ceneri Vulcaniche






- Altitudine del aeroporto : 268 ft
- Codice IATA : BFS


EGAA - Belfast Aldergrove

ULTIMO METAR :
  • 242320Z 19004KT 8000 FEW004 BKN007 05/05 Q1005

METARs OBSOLETI :
  • 242250Z 21006KT 9999 FEW004 SCT007 BKN011 05/05 Q1005
  • 242220Z 21007KT 9999 FEW007 05/05 Q1005
  • 242150Z 22006KT 9999 FEW005 SCT009 05/05 Q1005
  • 242120Z 24006KT 9999 BKN006 06/05 Q1005
  • 242050Z 22005KT 9999 BKN006 06/05 Q1004

TAF TAF EGAA
Valido dal 25 a 00 ore il 26 a 00 ore UTC


242301Z 2500/2524 21007KT 9999 FEW014 SCT030
TEMPO 2500/2509 BKN003
PROB30 2500/2508 3000 BR BKN001



MetMap, La meteo Aeronautica in un colpo d'occhio ! - Copyright ORBIFLY Dicembre 2007 - Disclaimer

ORBIFLY MET'MAP TEAM :

Programmazione e sviluppo : Alexandra Zaïnal
Concezione : Baudouin d'Aumeries
Aiuto per la programmazione : Marc-Olivier Méhu
Supporto tecnico e logistico : Manuel Goepfert
Aiuto per la traduzione : Arnaldo La Scala

Contatto : metmap@orbifly.com




FONTI E CREDITI :

   NOAA